MAPA DE AEROPUERTO

INFORMACIÓN METAR y TAF

METAR FOR GCXO
ADDS - METARS form results

(1152 UTC 02 June 2020)
Data provider http://aviationweather.gov/metar/data/
 
METAR text: GCXO 021130Z VRB04KT 9999 FEW021 21/14 Q1017 NOSIG
Conditions at: GCXO (TENERIFE/LOS ROD, ES) observed 1130 UTC 02 June 2020
Temperature: 21.0°C (70°F)
Dewpoint: 14.0°C (57°F) [RH = 64%]
Pressure (altimeter): 30.03 inches Hg (1017.0 mb)
Winds: variable direction winds at 5 MPH (4 knots; 2.1 m/s)
Visibility: 6 or more miles (10+ km)
Ceiling: at least 12,000 feet AGL
Clouds: few clouds at 2100 feet AGL
Weather: no significant weather observed at this time

METAR text: GCXO 021100Z VRB05KT 9999 FEW021 21/14 Q1017 NOSIG
Conditions at: GCXO (TENERIFE/LOS ROD, ES) observed 1100 UTC 02 June 2020
Temperature: 21.0°C (70°F)
Dewpoint: 14.0°C (57°F) [RH = 64%]
Pressure (altimeter): 30.03 inches Hg (1017.0 mb)
Winds: variable direction winds at 6 MPH (5 knots; 2.6 m/s)
Visibility: 6 or more miles (10+ km)
Ceiling: at least 12,000 feet AGL
Clouds: few clouds at 2100 feet AGL
Weather: no significant weather observed at this time

Forecast for: AMD
Text: TAF AMD GCXO 021046Z 0210/0309 15010KT 9999 FEW015 TX24/0215Z TN16/0306Z
Forecast period: 1000 UTC 02 June 2020 to 0900 UTC 03 June 2020
Forecast type: FROM: standard forecast or significant change
Winds: from the SSE (150 degrees) at 12 MPH (10 knots; 5.1 m/s)
Visibility: 6 or more miles 10+ km)
Ceiling: at least 12,000 feet AGL
Clouds: few clouds at 1500 feet AGL
Weather: no significant weather forecast for this period
Text: TEMPO 0210/0309 VRB05KT
Forecast period: 1000 UTC 02 June 2020 to 0900 UTC 03 June 2020
Forecast type: TEMPORARY: The following changes expected for less than half the time period
Winds: variable direction winds at 6 MPH (5 knots; 2.6 m/s)
Visibility: missing
Ceiling: unknown
Clouds: missing
Weather: no significant weather forecast for this period